createdAt,value
2023-07-12T00:02:15.351Z,12.19
2023-07-12T00:04:51.220Z,12.04
2023-07-12T00:07:22.625Z,12.02
2023-07-12T00:09:51.974Z,12.03
2023-07-12T00:12:21.253Z,12.05
2023-07-12T00:14:50.615Z,12.10
2023-07-12T00:19:57.097Z,11.95
2023-07-12T00:22:28.309Z,11.92
2023-07-12T00:24:57.721Z,11.84
2023-07-12T00:27:26.909Z,11.80
2023-07-12T00:29:56.261Z,11.79
2023-07-12T00:32:30.647Z,11.72
2023-07-12T00:35:00.352Z,11.59
2023-07-12T00:37:35.706Z,11.60
2023-07-12T00:40:06.528Z,11.67
2023-07-12T00:42:41.616Z,11.72
2023-07-12T00:45:14.152Z,11.74
2023-07-12T00:47:45.140Z,11.67
2023-07-12T00:50:21.326Z,11.74
2023-07-12T00:52:59.680Z,11.78
2023-07-12T00:55:59.146Z,11.82
2023-07-12T00:58:32.666Z,11.79
2023-07-12T01:01:05.676Z,11.78
2023-07-12T01:03:39.426Z,11.79
2023-07-12T01:06:12.285Z,11.83
2023-07-12T01:08:54.757Z,11.87
2023-07-12T01:11:28.311Z,11.75
2023-07-12T01:14:00.720Z,11.89
2023-07-12T01:16:31.100Z,11.93
2023-07-12T01:21:49.098Z,11.99
2023-07-12T01:24:19.706Z,12.01
2023-07-12T01:26:50.540Z,12.05
2023-07-12T01:29:20.379Z,12.07
2023-07-12T01:31:50.114Z,12.08
2023-07-12T01:34:20.527Z,12.09
2023-07-12T01:36:52.159Z,12.14
2023-07-12T01:39:21.693Z,12.09
2023-07-12T01:41:50.836Z,12.11
2023-07-12T01:44:37.987Z,12.20
2023-07-12T01:47:07.480Z,12.15
2023-07-12T01:49:39.148Z,12.14
2023-07-12T01:52:15.914Z,12.19
2023-07-12T01:54:45.227Z,12.16
2023-07-12T01:57:14.630Z,12.13
2023-07-12T01:59:49.150Z,12.21
2023-07-12T02:02:18.517Z,12.26
2023-07-12T02:04:53.901Z,12.19
2023-07-12T02:07:25.336Z,12.32
2023-07-12T02:10:20.969Z,12.39
2023-07-12T02:12:51.450Z,12.39
2023-07-12T02:15:25.939Z,12.45
2023-07-12T02:17:56.226Z,12.48
2023-07-12T02:20:31.026Z,12.53
2023-07-12T02:23:02.445Z,12.63
2023-07-12T02:25:38.427Z,12.59
2023-07-12T02:28:13.130Z,12.69
2023-07-12T02:30:46.267Z,12.77
2023-07-12T02:33:15.558Z,12.79
2023-07-12T02:35:45.284Z,12.79
2023-07-12T02:38:16.629Z,12.85
2023-07-12T02:40:46.046Z,12.94
2023-07-12T02:43:15.408Z,13.07
2023-07-12T02:48:25.154Z,13.31
2023-07-12T02:50:59.354Z,13.29
2023-07-12T02:53:31.667Z,13.27
2023-07-12T02:56:00.953Z,13.39
2023-07-12T02:58:30.211Z,13.44
2023-07-12T03:01:05.705Z,13.55
2023-07-12T03:03:35.327Z,13.63
2023-07-12T03:06:06.192Z,13.57
2023-07-12T03:08:37.934Z,13.41
2023-07-12T03:11:08.874Z,13.49
2023-07-12T03:13:42.614Z,13.26
2023-07-12T03:16:22.070Z,13.12
2023-07-12T03:18:52.039Z,13.00
2023-07-12T03:21:21.476Z,13.00
2023-07-12T03:23:52.914Z,13.00
2023-07-12T03:26:22.264Z,12.99
2023-07-12T03:28:59.369Z,12.97
2023-07-12T03:31:30.306Z,12.98
2023-07-12T03:34:05.433Z,13.03
2023-07-12T03:36:34.909Z,13.21
2023-07-12T03:39:11.466Z,13.36
2023-07-12T03:41:40.761Z,13.53
2023-07-12T03:44:10.159Z,13.68
2023-07-12T03:46:39.500Z,13.76
2023-07-12T03:49:08.838Z,13.90
2023-07-12T03:51:38.345Z,13.96
2023-07-12T03:54:07.679Z,14.11
2023-07-12T03:56:38.851Z,14.23
2023-07-12T03:59:09.218Z,14.16
2023-07-12T04:01:39.963Z,14.50
2023-07-12T04:04:09.365Z,14.61
2023-07-12T04:06:41.002Z,14.58
2023-07-12T04:09:10.558Z,14.62
2023-07-12T04:11:42.288Z,14.60
2023-07-12T04:14:16.266Z,14.66
2023-07-12T04:16:48.159Z,14.53
2023-07-12T04:19:17.538Z,14.54
2023-07-12T04:21:46.769Z,14.38
2023-07-12T04:24:16.076Z,14.46
2023-07-12T04:26:47.379Z,14.44
2023-07-12T04:29:16.685Z,14.45
2023-07-12T04:31:45.930Z,14.14
2023-07-12T04:34:22.847Z,14.01
2023-07-12T04:37:09.766Z,13.89
2023-07-12T04:39:39.153Z,13.80
2023-07-12T04:42:15.382Z,13.71
2023-07-12T04:44:47.449Z,13.73
2023-07-12T04:47:18.439Z,13.80
2023-07-12T04:49:47.958Z,13.89
2023-07-12T04:52:17.598Z,13.99
2023-07-12T04:54:47.380Z,14.20
2023-07-12T04:57:18.627Z,14.25
2023-07-12T04:59:48.136Z,14.49
2023-07-12T05:02:17.367Z,14.64
2023-07-12T05:04:52.822Z,14.48
2023-07-12T05:07:22.095Z,14.21
2023-07-12T05:09:51.500Z,14.32
2023-07-12T05:12:23.029Z,14.28
2023-07-12T05:14:52.399Z,14.38
2023-07-12T05:17:21.977Z,14.48
2023-07-12T05:19:51.605Z,14.71
2023-07-12T05:22:20.899Z,14.94
2023-07-12T05:24:50.381Z,14.74
2023-07-12T05:27:26.647Z,14.96
2023-07-12T05:29:56.542Z,15.01
2023-07-12T05:32:25.887Z,14.85
2023-07-12T05:34:55.365Z,14.77
2023-07-12T05:37:27.677Z,14.83
2023-07-12T05:39:59.821Z,14.63
2023-07-12T05:42:31.362Z,14.73
2023-07-12T05:45:06.760Z,14.39
2023-07-12T05:47:36.207Z,14.36
2023-07-12T05:50:06.198Z,14.32
2023-07-12T05:52:35.661Z,14.40
2023-07-12T05:55:05.091Z,14.55
2023-07-12T05:57:41.990Z,14.88
2023-07-12T06:00:15.069Z,14.71
2023-07-12T06:02:50.247Z,14.99
2023-07-12T06:05:20.046Z,15.22
2023-07-12T06:07:49.620Z,15.39
2023-07-12T06:10:19.217Z,15.44
2023-07-12T06:12:50.512Z,15.68
2023-07-12T06:15:20.272Z,15.69
2023-07-12T06:17:54.652Z,15.49
2023-07-12T06:20:24.155Z,15.38
2023-07-12T06:22:53.335Z,15.42
2023-07-12T06:25:22.949Z,15.64
2023-07-12T06:27:54.693Z,15.76
2023-07-12T06:30:24.472Z,15.89
2023-07-12T06:32:54.154Z,16.16
2023-07-12T06:35:23.544Z,16.26
2023-07-12T06:37:52.665Z,16.42
2023-07-12T06:40:27.324Z,16.59
2023-07-12T06:43:03.956Z,16.94
2023-07-12T06:45:38.626Z,17.21
2023-07-12T06:48:13.150Z,16.72
2023-07-12T06:50:42.795Z,16.45
2023-07-12T06:53:12.176Z,16.36
2023-07-12T06:58:33.129Z,16.58
2023-07-12T07:01:07.866Z,16.94
2023-07-12T07:03:38.613Z,16.75
2023-07-12T07:06:08.081Z,16.46
2023-07-12T07:08:37.744Z,16.16
2023-07-12T07:11:07.369Z,15.92
2023-07-12T07:13:38.968Z,15.84
2023-07-12T07:16:13.745Z,15.78
2023-07-12T07:18:50.128Z,15.56
2023-07-12T07:21:24.549Z,15.49
2023-07-12T07:23:54.489Z,15.63
2023-07-12T07:26:23.927Z,15.86
2023-07-12T07:29:00.378Z,16.05
2023-07-12T07:31:34.809Z,16.50
2023-07-12T07:34:04.488Z,16.55
2023-07-12T07:36:33.786Z,16.47
2023-07-12T07:39:03.761Z,16.36
2023-07-12T07:41:33.001Z,16.12
2023-07-12T07:44:04.172Z,15.68
2023-07-12T07:46:33.893Z,15.30
2023-07-12T07:49:03.395Z,14.93
2023-07-12T07:51:38.897Z,14.57
2023-07-12T07:54:08.307Z,14.53
2023-07-12T07:56:37.783Z,14.36
2023-07-12T07:59:15.430Z,14.28
2023-07-12T08:01:46.173Z,14.21
2023-07-12T08:04:18.098Z,14.14
2023-07-12T08:06:47.822Z,14.23
2023-07-12T08:09:17.225Z,14.14
2023-07-12T08:11:46.597Z,14.21
2023-07-12T08:14:24.117Z,14.56
2023-07-12T08:16:54.070Z,14.77
2023-07-12T08:19:27.980Z,15.00
2023-07-12T08:21:57.803Z,15.12
2023-07-12T08:24:27.272Z,15.45
2023-07-12T08:27:07.109Z,15.65
2023-07-12T08:29:40.527Z,15.87
2023-07-12T08:32:15.371Z,15.89
2023-07-12T08:34:49.777Z,15.59
2023-07-12T08:37:19.251Z,15.26
2023-07-12T08:39:48.647Z,15.06
2023-07-12T08:42:22.647Z,15.01
2023-07-12T08:44:55.089Z,14.90
2023-07-12T08:50:16.836Z,14.68
2023-07-12T08:52:48.298Z,14.59
2023-07-12T08:55:26.043Z,14.61
2023-07-12T08:58:00.254Z,14.56
2023-07-12T09:00:35.047Z,14.26
2023-07-12T09:03:04.380Z,14.55
2023-07-12T09:05:33.990Z,14.24
2023-07-12T09:08:15.201Z,14.14
2023-07-12T09:10:49.834Z,14.41
2023-07-12T09:13:35.343Z,14.72
2023-07-12T09:16:22.023Z,14.73
2023-07-12T09:19:00.449Z,14.65
2023-07-12T09:21:32.014Z,14.45
2023-07-12T09:24:05.774Z,14.10
2023-07-12T09:26:46.412Z,13.81
2023-07-12T09:29:23.563Z,13.66
2023-07-12T09:32:02.157Z,13.74
2023-07-12T09:34:44.094Z,13.76
2023-07-12T09:37:16.364Z,14.16
2023-07-12T09:39:59.434Z,14.51
2023-07-12T09:42:30.077Z,14.86
2023-07-12T09:47:54.843Z,16.20
2023-07-12T09:50:34.669Z,17.04
2023-07-12T09:53:09.160Z,17.67
2023-07-12T09:58:38.708Z,17.97
2023-07-12T10:01:19.693Z,18.06
2023-07-12T10:03:58.233Z,18.20
2023-07-12T10:06:38.604Z,17.96
2023-07-12T10:09:14.542Z,18.23
2023-07-12T10:11:49.569Z,18.17
2023-07-12T10:14:21.941Z,18.23
2023-07-12T10:16:57.378Z,18.51
2023-07-12T10:19:33.195Z,18.60
2023-07-12T10:22:06.181Z,18.49
2023-07-12T10:24:39.838Z,18.12
2023-07-12T10:27:19.982Z,17.83
2023-07-12T10:29:55.440Z,17.38
2023-07-12T10:32:28.974Z,17.12
2023-07-12T10:35:12.525Z,16.83
2023-07-12T10:37:49.869Z,16.60
2023-07-12T10:40:22.890Z,16.61
2023-07-12T10:42:58.599Z,16.71
2023-07-12T10:45:30.157Z,16.85
2023-07-12T10:48:01.255Z,17.22
2023-07-12T10:50:38.772Z,16.89
2023-07-12T10:56:12.972Z,16.46
2023-07-12T10:58:53.214Z,16.26
2023-07-12T11:01:49.034Z,16.13
2023-07-12T11:04:32.848Z,15.85
2023-07-12T11:07:07.730Z,15.88
2023-07-12T11:10:07.353Z,15.95
2023-07-12T11:12:40.622Z,16.06
2023-07-12T11:15:25.614Z,16.32
2023-07-12T11:18:04.013Z,16.44
2023-07-12T11:20:37.276Z,16.51
2023-07-12T11:23:42.292Z,16.76
2023-07-12T11:26:27.623Z,16.68
2023-07-12T11:29:19.065Z,16.58
2023-07-12T11:31:52.785Z,16.46
2023-07-12T11:34:25.539Z,16.34
2023-07-12T11:37:02.641Z,16.29
2023-07-12T11:39:32.994Z,16.41
2023-07-12T11:42:28.666Z,16.49
2023-07-12T11:45:06.469Z,16.61
2023-07-12T11:47:37.738Z,16.89
2023-07-12T11:50:10.932Z,17.29
2023-07-12T11:52:45.526Z,17.90
2023-07-12T11:55:22.590Z,18.48
2023-07-12T11:57:54.448Z,18.78
2023-07-12T12:00:30.270Z,19.38
2023-07-12T12:03:01.799Z,19.68
2023-07-12T12:05:34.032Z,19.61
2023-07-12T12:08:03.617Z,19.13
2023-07-12T12:10:38.338Z,18.62
2023-07-12T12:13:31.507Z,18.39
2023-07-12T12:16:12.160Z,18.33
2023-07-12T12:18:59.178Z,18.14
2023-07-12T12:21:30.709Z,17.93
2023-07-12T12:24:08.274Z,17.80
2023-07-12T12:26:42.285Z,17.87
2023-07-12T12:29:18.702Z,17.88
2023-07-12T12:31:54.709Z,17.93
2023-07-12T12:34:27.950Z,17.97
2023-07-12T12:37:01.679Z,18.21
2023-07-12T12:39:37.686Z,18.38
2023-07-12T12:42:20.991Z,18.57
2023-07-12T12:58:05.197Z,17.67
2023-07-12T13:06:35.283Z,17.82
2023-07-12T13:11:13.287Z,17.84
2023-07-12T13:19:31.726Z,17.87
2023-07-12T13:22:03.171Z,17.92
2023-07-12T13:24:32.326Z,18.21
2023-07-12T13:27:01.478Z,17.94
2023-07-12T13:29:30.972Z,17.97
2023-07-12T13:32:00.416Z,18.02
2023-07-12T13:36:06.888Z,17.98
2023-07-12T13:37:28.969Z,17.75
2023-07-12T13:40:20.244Z,17.82
2023-07-12T13:42:58.385Z,17.94
2023-07-12T13:45:30.644Z,17.84
2023-07-12T13:48:00.190Z,17.73
2023-07-12T13:50:29.620Z,17.88
2023-07-12T13:53:01.482Z,17.74
2023-07-12T13:55:31.140Z,17.96
2023-07-12T13:58:00.334Z,17.93
2023-07-12T14:03:22.114Z,18.10
2023-07-12T14:05:57.897Z,17.94
2023-07-12T14:11:06.642Z,17.62
2023-07-12T14:13:36.579Z,17.75
2023-07-12T14:16:06.211Z,17.83
2023-07-12T14:18:35.933Z,17.94
2023-07-12T14:21:15.354Z,18.17
2023-07-12T14:23:52.135Z,18.38
2023-07-12T14:26:24.488Z,18.49
2023-07-12T14:28:58.235Z,18.49
2023-07-12T14:31:29.779Z,18.32
2023-07-12T14:33:59.609Z,18.35
2023-07-12T14:36:29.300Z,18.37
2023-07-12T14:39:06.017Z,18.56
2023-07-12T14:41:36.293Z,18.51
2023-07-12T14:44:15.309Z,18.52
2023-07-12T14:46:45.077Z,18.33
2023-07-12T14:49:14.650Z,18.14
2023-07-12T14:51:52.492Z,17.97
2023-07-12T14:54:39.316Z,17.81
2023-07-12T14:57:45.174Z,17.72
2023-07-12T15:00:16.743Z,17.81
2023-07-12T15:03:01.642Z,17.84
2023-07-12T15:05:31.283Z,17.93
2023-07-12T15:08:00.546Z,17.93
2023-07-12T15:10:33.343Z,17.98
2023-07-12T15:13:03.692Z,17.96
2023-07-12T15:15:34.971Z,17.77
2023-07-12T15:18:18.163Z,17.93
2023-07-12T15:21:10.520Z,18.09
2023-07-12T15:23:40.503Z,18.13
2023-07-12T15:26:12.964Z,18.15
2023-07-12T15:28:42.674Z,17.95
2023-07-12T15:31:25.396Z,18.00
2023-07-12T15:33:54.951Z,18.09
2023-07-12T15:36:25.783Z,18.31
2023-07-12T15:38:55.140Z,18.48
2023-07-12T15:41:28.913Z,18.59
2023-07-12T15:43:59.632Z,18.58
2023-07-12T15:46:32.750Z,18.57
2023-07-12T15:49:07.297Z,18.60
2023-07-12T15:54:23.657Z,18.06
2023-07-12T15:56:55.943Z,17.67
2023-07-12T15:59:29.199Z,17.28
2023-07-12T16:01:59.470Z,17.00
2023-07-12T16:04:28.796Z,16.67
2023-07-12T16:07:03.500Z,16.34
2023-07-12T16:09:33.655Z,16.59
2023-07-12T16:12:05.646Z,16.65
2023-07-12T16:14:35.449Z,16.63
2023-07-12T16:17:05.162Z,16.61
2023-07-12T16:19:34.565Z,16.53
2023-07-12T16:22:03.878Z,16.50
2023-07-12T16:24:39.916Z,16.40
2023-07-12T16:27:19.593Z,16.34
2023-07-12T16:29:49.192Z,16.29
2023-07-12T16:32:19.916Z,16.20
2023-07-12T16:34:49.981Z,16.17
2023-07-12T16:37:21.029Z,16.03
2023-07-12T16:39:52.709Z,16.08
2023-07-12T16:42:32.716Z,16.20
2023-07-12T16:45:02.719Z,16.01
2023-07-12T16:47:34.254Z,15.70
2023-07-12T16:50:09.028Z,15.76
2023-07-12T16:52:38.535Z,15.65
2023-07-12T16:55:23.778Z,15.68
2023-07-12T16:57:55.286Z,15.66
2023-07-12T17:00:31.453Z,15.62
2023-07-12T17:03:00.902Z,15.50
2023-07-12T17:05:30.330Z,15.50
2023-07-12T17:07:59.589Z,15.35
2023-07-12T17:10:28.956Z,15.21
2023-07-12T17:13:00.749Z,15.08
2023-07-12T17:15:30.217Z,14.88
2023-07-12T17:18:00.732Z,14.73
2023-07-12T17:20:31.534Z,14.54
2023-07-12T17:23:02.716Z,14.44
2023-07-12T17:25:32.154Z,14.35
2023-07-12T17:28:03.537Z,14.20
2023-07-12T17:30:33.192Z,14.21
2023-07-12T17:33:05.670Z,14.14
2023-07-12T17:35:35.075Z,14.12
2023-07-12T17:38:09.365Z,14.13
2023-07-12T17:40:38.951Z,14.11
2023-07-12T17:43:15.548Z,14.07
2023-07-12T17:45:45.943Z,14.04
2023-07-12T17:48:21.195Z,13.98
2023-07-12T17:50:59.734Z,13.92
2023-07-12T17:53:29.496Z,13.86
2023-07-12T17:56:01.045Z,13.89
2023-07-12T17:58:32.483Z,13.88
2023-07-12T18:01:04.624Z,13.83
2023-07-12T18:03:34.357Z,13.85
2023-07-12T18:06:03.801Z,13.74
2023-07-12T18:08:33.277Z,13.77
2023-07-12T18:11:22.523Z,13.85
2023-07-12T18:13:54.070Z,13.72
2023-07-12T18:16:23.735Z,13.70
2023-07-12T18:18:54.019Z,13.61
2023-07-12T18:21:26.850Z,13.59
2023-07-12T18:23:57.204Z,13.56
2023-07-12T18:26:28.001Z,13.61
2023-07-12T18:28:59.274Z,13.59
2023-07-12T18:31:31.563Z,13.52
2023-07-12T18:34:02.819Z,13.47
2023-07-12T18:36:33.051Z,13.45
2023-07-12T18:39:07.866Z,13.41
2023-07-12T18:44:16.453Z,13.13
2023-07-12T18:46:46.949Z,13.21
2023-07-12T18:49:16.533Z,13.11
2023-07-12T18:51:45.758Z,13.25
2023-07-12T18:54:22.154Z,13.23
2023-07-12T18:56:51.698Z,13.27
2023-07-12T18:59:23.230Z,13.27
2023-07-12T19:01:53.133Z,13.37
2023-07-12T19:04:28.831Z,13.39
2023-07-12T19:06:58.201Z,13.37
2023-07-12T19:09:27.539Z,13.36
2023-07-12T19:11:59.914Z,13.35
2023-07-12T19:14:32.200Z,13.28
2023-07-12T19:17:03.640Z,13.42
2023-07-12T19:19:33.168Z,13.46
2023-07-12T19:22:09.160Z,13.44
2023-07-12T19:24:43.916Z,13.53
2023-07-12T19:27:24.304Z,13.58
2023-07-12T19:30:01.878Z,13.55
2023-07-12T19:32:41.576Z,13.55
2023-07-12T19:35:21.050Z,13.55
2023-07-12T19:37:50.847Z,13.46
2023-07-12T19:40:20.947Z,13.39
2023-07-12T19:42:52.145Z,13.33
2023-07-12T19:45:28.581Z,13.41
2023-07-12T19:47:59.348Z,13.43
2023-07-12T19:50:34.404Z,13.44
2023-07-12T19:53:27.635Z,13.48
2023-07-12T19:55:57.521Z,13.40
2023-07-12T19:58:32.406Z,13.39
2023-07-12T20:01:04.703Z,13.39
2023-07-12T20:03:39.544Z,13.46
2023-07-12T20:06:10.818Z,13.45
2023-07-12T20:08:50.472Z,13.45
2023-07-12T20:11:26.770Z,13.46
2023-07-12T20:13:58.016Z,13.42
2023-07-12T20:16:30.937Z,13.42
2023-07-12T20:21:40.246Z,13.34
2023-07-12T20:24:13.640Z,13.28
2023-07-12T20:26:43.417Z,13.22
2023-07-12T20:29:14.469Z,13.06
2023-07-12T20:31:45.980Z,13.00
2023-07-12T20:36:53.104Z,13.16
2023-07-12T20:39:24.473Z,13.13
2023-07-12T20:41:55.697Z,13.20
2023-07-12T20:44:33.796Z,13.15
2023-07-12T20:47:05.718Z,13.07
2023-07-12T20:49:39.859Z,13.08
2023-07-12T20:52:15.730Z,13.07
2023-07-12T20:54:46.536Z,13.02
2023-07-12T20:57:16.401Z,12.98
2023-07-12T20:59:45.773Z,12.99
2023-07-12T21:02:24.371Z,12.99
2023-07-12T21:04:53.998Z,13.10
2023-07-12T21:07:28.313Z,13.06
2023-07-12T21:09:57.879Z,12.99
2023-07-12T21:12:27.205Z,12.96
2023-07-12T21:14:57.569Z,12.98
2023-07-12T21:17:34.061Z,13.00
2023-07-12T21:20:05.485Z,12.99
2023-07-12T21:22:35.746Z,12.88
2023-07-12T21:25:05.278Z,12.95
2023-07-12T21:27:34.802Z,12.88
2023-07-12T21:30:04.620Z,12.98
2023-07-12T21:32:39.139Z,12.98
2023-07-12T21:35:09.881Z,13.03
2023-07-12T21:37:44.264Z,13.05
2023-07-12T21:40:18.730Z,13.05
2023-07-12T21:42:48.732Z,13.06
2023-07-12T21:45:18.254Z,13.01
2023-07-12T21:47:49.607Z,13.02
2023-07-12T21:50:24.004Z,13.02
2023-07-12T21:52:53.380Z,13.00
2023-07-12T21:55:22.593Z,12.98
2023-07-12T21:57:51.920Z,12.92
2023-07-12T22:00:22.216Z,12.98
2023-07-12T22:02:53.939Z,12.99
2023-07-12T22:05:23.066Z,13.10
2023-07-12T22:07:57.395Z,13.05
2023-07-12T22:10:29.032Z,12.98
2023-07-12T22:13:03.712Z,13.01
2023-07-12T22:15:34.158Z,12.90
2023-07-12T22:18:06.599Z,13.02
2023-07-12T22:20:46.429Z,13.01
2023-07-12T22:23:15.761Z,13.03
2023-07-12T22:25:45.066Z,13.02
2023-07-12T22:28:14.439Z,12.98
2023-07-12T22:30:44.139Z,12.98
2023-07-12T22:33:15.694Z,12.97
2023-07-12T22:35:45.565Z,12.88
2023-07-12T22:38:15.811Z,12.89
2023-07-12T22:40:45.107Z,12.82
2023-07-12T22:43:14.413Z,12.86
2023-07-12T22:45:48.849Z,12.89
2023-07-12T22:48:20.217Z,12.92
2023-07-12T22:53:26.289Z,12.83
2023-07-12T22:55:59.373Z,12.82
2023-07-12T22:58:34.691Z,12.89
2023-07-12T23:01:09.167Z,12.81
2023-07-12T23:03:40.741Z,12.84
2023-07-12T23:08:57.511Z,12.87
2023-07-12T23:11:26.955Z,12.86
2023-07-12T23:13:56.087Z,12.82
2023-07-12T23:16:27.993Z,12.86
2023-07-12T23:19:04.723Z,12.89
2023-07-12T23:21:40.310Z,12.93
2023-07-12T23:24:09.927Z,12.90
2023-07-12T23:26:49.235Z,12.93
2023-07-12T23:29:18.618Z,12.91
2023-07-12T23:31:49.851Z,12.86
2023-07-12T23:34:26.110Z,12.93
2023-07-12T23:36:55.764Z,12.84
2023-07-12T23:39:25.069Z,12.88
2023-07-12T23:41:55.373Z,12.75
2023-07-12T23:44:34.773Z,12.83
2023-07-12T23:47:06.366Z,12.89
2023-07-12T23:49:37.588Z,12.97
2023-07-12T23:52:08.422Z,12.87
2023-07-12T23:54:37.775Z,12.88
2023-07-12T23:57:08.138Z,12.88
2023-07-12T23:59:44.214Z,12.89
